sensor_id;sensor_type;location;lat;lon;timestamp;P1;durP1;ratioP1;P2;durP2;ratioP2
73382;SDS011;61600;48.126;11.542;2022-12-01T00:00:53;43.10;;;15.43;;
73382;SDS011;61600;48.126;11.542;2022-12-01T00:03:19;34.65;;;14.00;;
73382;SDS011;61600;48.126;11.542;2022-12-01T00:05:46;37.65;;;15.40;;
73382;SDS011;61600;48.126;11.542;2022-12-01T00:08:12;42.97;;;14.93;;
73382;SDS011;61600;48.126;11.542;2022-12-01T00:10:40;39.13;;;14.00;;
73382;SDS011;61600;48.126;11.542;2022-12-01T00:13:06;35.13;;;14.65;;
73382;SDS011;61600;48.126;11.542;2022-12-01T00:15:33;40.75;;;15.10;;
73382;SDS011;61600;48.126;11.542;2022-12-01T00:18:03;41.40;;;16.95;;
73382;SDS011;61600;48.126;11.542;2022-12-01T00:20:33;40.22;;;16.83;;
73382;SDS011;61600;48.126;11.542;2022-12-01T00:23:02;37.42;;;15.25;;
73382;SDS011;61600;48.126;11.542;2022-12-01T00:25:29;41.28;;;15.27;;
73382;SDS011;61600;48.126;11.542;2022-12-01T00:27:58;40.35;;;15.10;;
73382;SDS011;61600;48.126;11.542;2022-12-01T00:30:25;33.97;;;16.42;;
73382;SDS011;61600;48.126;11.542;2022-12-01T00:32:54;41.22;;;15.60;;
73382;SDS011;61600;48.126;11.542;2022-12-01T00:35:29;36.00;;;13.48;;
73382;SDS011;61600;48.126;11.542;2022-12-01T00:37:58;33.38;;;13.57;;
73382;SDS011;61600;48.126;11.542;2022-12-01T00:40:24;35.80;;;13.93;;
73382;SDS011;61600;48.126;11.542;2022-12-01T00:42:50;39.03;;;15.15;;
73382;SDS011;61600;48.126;11.542;2022-12-01T00:45:15;33.80;;;13.68;;
73382;SDS011;61600;48.126;11.542;2022-12-01T00:47:41;34.65;;;13.73;;
73382;SDS011;61600;48.126;11.542;2022-12-01T00:50:07;35.88;;;13.60;;
73382;SDS011;61600;48.126;11.542;2022-12-01T00:52:33;35.22;;;13.57;;
73382;SDS011;61600;48.126;11.542;2022-12-01T00:54:59;34.92;;;13.52;;
73382;SDS011;61600;48.126;11.542;2022-12-01T00:57:24;35.20;;;13.65;;
73382;SDS011;61600;48.126;11.542;2022-12-01T00:59:50;36.25;;;14.07;;
73382;SDS011;61600;48.126;11.542;2022-12-01T01:02:16;37.67;;;14.90;;
73382;SDS011;61600;48.126;11.542;2022-12-01T01:04:42;32.88;;;13.85;;
73382;SDS011;61600;48.126;11.542;2022-12-01T01:07:07;36.55;;;13.68;;
73382;SDS011;61600;48.126;11.542;2022-12-01T01:09:33;31.58;;;13.88;;
73382;SDS011;61600;48.126;11.542;2022-12-01T01:11:58;31.95;;;12.90;;
73382;SDS011;61600;48.126;11.542;2022-12-01T01:14:25;37.20;;;14.23;;
73382;SDS011;61600;48.126;11.542;2022-12-01T01:16:51;32.75;;;13.63;;
73382;SDS011;61600;48.126;11.542;2022-12-01T01:19:17;30.38;;;12.43;;
73382;SDS011;61600;48.126;11.542;2022-12-01T01:21:42;31.60;;;12.27;;
73382;SDS011;61600;48.126;11.542;2022-12-01T01:24:08;32.65;;;12.75;;
73382;SDS011;61600;48.126;11.542;2022-12-01T01:26:34;30.27;;;12.20;;
73382;SDS011;61600;48.126;11.542;2022-12-01T01:29:04;36.53;;;12.18;;
73382;SDS011;61600;48.126;11.542;2022-12-01T01:31:32;30.35;;;12.52;;
73382;SDS011;61600;48.126;11.542;2022-12-01T01:33:58;31.77;;;11.98;;
73382;SDS011;61600;48.126;11.542;2022-12-01T01:36:25;30.30;;;12.55;;
73382;SDS011;61600;48.126;11.542;2022-12-01T01:38:52;30.67;;;12.43;;
73382;SDS011;61600;48.126;11.542;2022-12-01T01:41:20;30.20;;;13.38;;
73382;SDS011;61600;48.126;11.542;2022-12-01T01:43:51;32.05;;;13.40;;
73382;SDS011;61600;48.126;11.542;2022-12-01T01:46:29;32.47;;;12.57;;
73382;SDS011;61600;48.126;11.542;2022-12-01T01:49:09;32.47;;;12.65;;
73382;SDS011;61600;48.126;11.542;2022-12-01T01:51:42;33.20;;;12.52;;
73382;SDS011;61600;48.126;11.542;2022-12-01T01:54:12;37.20;;;13.73;;
73382;SDS011;61600;48.126;11.542;2022-12-01T01:56:43;37.13;;;13.52;;
73382;SDS011;61600;48.126;11.542;2022-12-01T01:59:17;30.17;;;11.55;;
73382;SDS011;61600;48.126;11.542;2022-12-01T02:01:47;34.28;;;12.93;;
73382;SDS011;61600;48.126;11.542;2022-12-01T02:04:20;35.47;;;12.13;;
73382;SDS011;61600;48.126;11.542;2022-12-01T02:06:47;29.80;;;12.65;;
73382;SDS011;61600;48.126;11.542;2022-12-01T02:09:13;31.70;;;11.90;;
73382;SDS011;61600;48.126;11.542;2022-12-01T02:17:34;33.15;;;12.30;;
73382;SDS011;61600;48.126;11.542;2022-12-01T02:20:21;37.20;;;13.13;;
73382;SDS011;61600;48.126;11.542;2022-12-01T02:25:47;40.60;;;13.60;;
73382;SDS011;61600;48.126;11.542;2022-12-01T02:28:30;34.55;;;13.70;;
73382;SDS011;61600;48.126;11.542;2022-12-01T02:31:31;33.25;;;11.95;;
73382;SDS011;61600;48.126;11.542;2022-12-01T02:36:51;36.33;;;12.32;;
73382;SDS011;61600;48.126;11.542;2022-12-01T02:39:26;40.22;;;13.52;;
73382;SDS011;61600;48.126;11.542;2022-12-01T02:42:04;38.80;;;14.00;;
73382;SDS011;61600;48.126;11.542;2022-12-01T02:44:35;38.65;;;14.65;;
73382;SDS011;61600;48.126;11.542;2022-12-01T02:47:15;49.90;;;15.98;;
73382;SDS011;61600;48.126;11.542;2022-12-01T02:49:50;46.13;;;15.48;;
73382;SDS011;61600;48.126;11.542;2022-12-01T02:52:19;46.60;;;15.32;;
73382;SDS011;61600;48.126;11.542;2022-12-01T02:54:51;41.28;;;15.00;;
73382;SDS011;61600;48.126;11.542;2022-12-01T02:57:17;46.95;;;15.77;;
73382;SDS011;61600;48.126;11.542;2022-12-01T02:59:49;41.92;;;16.30;;
73382;SDS011;61600;48.126;11.542;2022-12-01T03:02:33;50.03;;;17.42;;
73382;SDS011;61600;48.126;11.542;2022-12-01T03:05:09;45.25;;;15.98;;
73382;SDS011;61600;48.126;11.542;2022-12-01T03:10:53;37.67;;;13.82;;
73382;SDS011;61600;48.126;11.542;2022-12-01T03:13:26;39.03;;;13.82;;
73382;SDS011;61600;48.126;11.542;2022-12-01T03:16:14;41.70;;;15.32;;
73382;SDS011;61600;48.126;11.542;2022-12-01T03:21:30;36.15;;;14.07;;
73382;SDS011;61600;48.126;11.542;2022-12-01T03:24:08;45.25;;;14.80;;
73382;SDS011;61600;48.126;11.542;2022-12-01T03:26:38;44.08;;;14.32;;
73382;SDS011;61600;48.126;11.542;2022-12-01T03:29:14;46.08;;;16.27;;
73382;SDS011;61600;48.126;11.542;2022-12-01T03:31:43;45.58;;;14.68;;
73382;SDS011;61600;48.126;11.542;2022-12-01T03:36:57;45.53;;;15.88;;
73382;SDS011;61600;48.126;11.542;2022-12-01T03:39:28;48.33;;;14.07;;
73382;SDS011;61600;48.126;11.542;2022-12-01T03:42:00;45.70;;;15.23;;
73382;SDS011;61600;48.126;11.542;2022-12-01T03:44:33;39.13;;;13.85;;
73382;SDS011;61600;48.126;11.542;2022-12-01T03:47:06;39.45;;;14.30;;
73382;SDS011;61600;48.126;11.542;2022-12-01T03:49:36;46.30;;;14.95;;
73382;SDS011;61600;48.126;11.542;2022-12-01T03:57:54;42.95;;;15.20;;
73382;SDS011;61600;48.126;11.542;2022-12-01T04:00:24;48.63;;;15.35;;
73382;SDS011;61600;48.126;11.542;2022-12-01T04:02:55;43.30;;;15.90;;
73382;SDS011;61600;48.126;11.542;2022-12-01T04:05:24;49.47;;;16.63;;
73382;SDS011;61600;48.126;11.542;2022-12-01T04:07:50;46.00;;;15.82;;
73382;SDS011;61600;48.126;11.542;2022-12-01T04:10:17;38.17;;;14.23;;
73382;SDS011;61600;48.126;11.542;2022-12-01T04:12:42;42.55;;;14.27;;
73382;SDS011;61600;48.126;11.542;2022-12-01T04:15:09;47.15;;;15.02;;
73382;SDS011;61600;48.126;11.542;2022-12-01T04:20:03;41.30;;;14.85;;
73382;SDS011;61600;48.126;11.542;2022-12-01T04:24:56;43.80;;;14.82;;
73382;SDS011;61600;48.126;11.542;2022-12-01T04:27:22;49.22;;;15.57;;
73382;SDS011;61600;48.126;11.542;2022-12-01T04:29:48;45.47;;;15.95;;
73382;SDS011;61600;48.126;11.542;2022-12-01T04:32:14;40.92;;;14.27;;
73382;SDS011;61600;48.126;11.542;2022-12-01T04:34:40;48.08;;;15.52;;
73382;SDS011;61600;48.126;11.542;2022-12-01T04:37:07;47.67;;;16.65;;
73382;SDS011;61600;48.126;11.542;2022-12-01T04:39:34;42.17;;;16.00;;
73382;SDS011;61600;48.126;11.542;2022-12-01T04:42:00;45.58;;;15.68;;
73382;SDS011;61600;48.126;11.542;2022-12-01T04:44:27;47.42;;;15.27;;
73382;SDS011;61600;48.126;11.542;2022-12-01T04:46:53;44.63;;;15.77;;
73382;SDS011;61600;48.126;11.542;2022-12-01T04:49:19;43.13;;;15.07;;
73382;SDS011;61600;48.126;11.542;2022-12-01T04:51:46;50.35;;;15.05;;
73382;SDS011;61600;48.126;11.542;2022-12-01T04:54:13;45.08;;;14.65;;
73382;SDS011;61600;48.126;11.542;2022-12-01T04:56:39;43.70;;;14.10;;
73382;SDS011;61600;48.126;11.542;2022-12-01T04:59:06;45.10;;;14.98;;
73382;SDS011;61600;48.126;11.542;2022-12-01T05:01:32;39.25;;;14.63;;
73382;SDS011;61600;48.126;11.542;2022-12-01T05:03:58;40.60;;;14.55;;
73382;SDS011;61600;48.126;11.542;2022-12-01T05:06:25;48.17;;;15.35;;
73382;SDS011;61600;48.126;11.542;2022-12-01T05:08:57;40.13;;;14.07;;
73382;SDS011;61600;48.126;11.542;2022-12-01T05:11:24;42.97;;;15.45;;
73382;SDS011;61600;48.126;11.542;2022-12-01T05:13:51;36.67;;;14.77;;
73382;SDS011;61600;48.126;11.542;2022-12-01T05:16:20;39.35;;;14.20;;
73382;SDS011;61600;48.126;11.542;2022-12-01T05:18:51;43.40;;;14.65;;
73382;SDS011;61600;48.126;11.542;2022-12-01T05:21:38;38.03;;;15.10;;
73382;SDS011;61600;48.126;11.542;2022-12-01T05:24:08;42.92;;;14.45;;
73382;SDS011;61600;48.126;11.542;2022-12-01T05:26:35;48.78;;;16.42;;
73382;SDS011;61600;48.126;11.542;2022-12-01T05:29:01;39.65;;;14.20;;
73382;SDS011;61600;48.126;11.542;2022-12-01T05:31:33;45.60;;;13.95;;
73382;SDS011;61600;48.126;11.542;2022-12-01T05:34:28;38.72;;;14.55;;
73382;SDS011;61600;48.126;11.542;2022-12-01T05:36:54;38.28;;;14.00;;
73382;SDS011;61600;48.126;11.542;2022-12-01T05:39:20;36.85;;;14.20;;
73382;SDS011;61600;48.126;11.542;2022-12-01T05:41:46;42.45;;;14.85;;
73382;SDS011;61600;48.126;11.542;2022-12-01T05:44:11;35.95;;;13.50;;
73382;SDS011;61600;48.126;11.542;2022-12-01T05:46:37;42.83;;;14.30;;
73382;SDS011;61600;48.126;11.542;2022-12-01T05:49:04;40.22;;;14.50;;
73382;SDS011;61600;48.126;11.542;2022-12-01T05:51:30;41.33;;;14.43;;
73382;SDS011;61600;48.126;11.542;2022-12-01T05:53:57;39.53;;;14.48;;
73382;SDS011;61600;48.126;11.542;2022-12-01T05:56:24;41.53;;;15.35;;
73382;SDS011;61600;48.126;11.542;2022-12-01T05:58:51;37.97;;;14.43;;
73382;SDS011;61600;48.126;11.542;2022-12-01T06:01:17;36.88;;;13.98;;
73382;SDS011;61600;48.126;11.542;2022-12-01T06:03:42;36.17;;;13.15;;
73382;SDS011;61600;48.126;11.542;2022-12-01T06:06:09;39.10;;;14.48;;
73382;SDS011;61600;48.126;11.542;2022-12-01T06:08:35;40.67;;;14.50;;
73382;SDS011;61600;48.126;11.542;2022-12-01T06:11:01;38.90;;;14.13;;
73382;SDS011;61600;48.126;11.542;2022-12-01T06:13:27;32.38;;;12.55;;
73382;SDS011;61600;48.126;11.542;2022-12-01T06:15:57;39.67;;;13.73;;
73382;SDS011;61600;48.126;11.542;2022-12-01T06:18:23;33.30;;;12.95;;
73382;SDS011;61600;48.126;11.542;2022-12-01T06:20:52;38.20;;;14.98;;
73382;SDS011;61600;48.126;11.542;2022-12-01T06:23:18;36.75;;;14.07;;
73382;SDS011;61600;48.126;11.542;2022-12-01T06:25:45;37.60;;;15.38;;
73382;SDS011;61600;48.126;11.542;2022-12-01T06:28:11;38.42;;;12.93;;
73382;SDS011;61600;48.126;11.542;2022-12-01T06:30:38;37.65;;;12.52;;
73382;SDS011;61600;48.126;11.542;2022-12-01T06:33:03;37.28;;;13.27;;
73382;SDS011;61600;48.126;11.542;2022-12-01T06:35:29;40.35;;;14.82;;
73382;SDS011;61600;48.126;11.542;2022-12-01T06:38:01;36.22;;;13.50;;
73382;SDS011;61600;48.126;11.542;2022-12-01T06:40:27;34.60;;;13.63;;
73382;SDS011;61600;48.126;11.542;2022-12-01T06:43:08;40.60;;;14.88;;
73382;SDS011;61600;48.126;11.542;2022-12-01T06:45:34;35.25;;;13.45;;
73382;SDS011;61600;48.126;11.542;2022-12-01T06:48:06;36.03;;;13.23;;
73382;SDS011;61600;48.126;11.542;2022-12-01T06:50:33;30.30;;;12.10;;
73382;SDS011;61600;48.126;11.542;2022-12-01T06:52:58;30.77;;;12.65;;
73382;SDS011;61600;48.126;11.542;2022-12-01T06:55:24;31.00;;;12.48;;
73382;SDS011;61600;48.126;11.542;2022-12-01T06:57:50;37.30;;;13.32;;
73382;SDS011;61600;48.126;11.542;2022-12-01T07:00:15;34.47;;;12.45;;
73382;SDS011;61600;48.126;11.542;2022-12-01T07:02:42;32.65;;;12.10;;
73382;SDS011;61600;48.126;11.542;2022-12-01T07:05:08;34.53;;;13.13;;
73382;SDS011;61600;48.126;11.542;2022-12-01T07:07:34;34.95;;;12.80;;
73382;SDS011;61600;48.126;11.542;2022-12-01T07:12:30;29.73;;;11.52;;
73382;SDS011;61600;48.126;11.542;2022-12-01T07:15:06;32.35;;;11.77;;
73382;SDS011;61600;48.126;11.542;2022-12-01T07:17:53;36.20;;;12.15;;
73382;SDS011;61600;48.126;11.542;2022-12-01T07:20:20;32.28;;;11.38;;
73382;SDS011;61600;48.126;11.542;2022-12-01T07:22:49;37.88;;;12.98;;
73382;SDS011;61600;48.126;11.542;2022-12-01T07:25:30;36.85;;;12.75;;
73382;SDS011;61600;48.126;11.542;2022-12-01T07:28:08;30.02;;;12.10;;
73382;SDS011;61600;48.126;11.542;2022-12-01T07:30:36;34.72;;;12.63;;
73382;SDS011;61600;48.126;11.542;2022-12-01T07:40:49;32.70;;;12.63;;
73382;SDS011;61600;48.126;11.542;2022-12-01T07:50:52;34.88;;;12.55;;
73382;SDS011;61600;48.126;11.542;2022-12-01T08:03:02;38.83;;;13.30;;
73382;SDS011;61600;48.126;11.542;2022-12-01T08:05:33;32.22;;;12.85;;
73382;SDS011;61600;48.126;11.542;2022-12-01T08:08:07;41.13;;;14.43;;
73382;SDS011;61600;48.126;11.542;2022-12-01T08:10:35;35.63;;;13.73;;
73382;SDS011;61600;48.126;11.542;2022-12-01T08:13:04;38.85;;;14.50;;
73382;SDS011;61600;48.126;11.542;2022-12-01T08:15:37;39.83;;;13.40;;
73382;SDS011;61600;48.126;11.542;2022-12-01T08:18:06;40.38;;;13.75;;
73382;SDS011;61600;48.126;11.542;2022-12-01T08:20:45;44.85;;;13.95;;
73382;SDS011;61600;48.126;11.542;2022-12-01T08:23:11;42.70;;;13.73;;
73382;SDS011;61600;48.126;11.542;2022-12-01T08:25:37;39.97;;;13.90;;
73382;SDS011;61600;48.126;11.542;2022-12-01T08:28:03;35.00;;;12.38;;
73382;SDS011;61600;48.126;11.542;2022-12-01T08:30:29;35.05;;;12.45;;
73382;SDS011;61600;48.126;11.542;2022-12-01T08:32:55;33.85;;;12.98;;
73382;SDS011;61600;48.126;11.542;2022-12-01T08:35:22;37.83;;;13.95;;
73382;SDS011;61600;48.126;11.542;2022-12-01T08:37:52;36.28;;;13.18;;
73382;SDS011;61600;48.126;11.542;2022-12-01T08:40:19;35.38;;;14.40;;
73382;SDS011;61600;48.126;11.542;2022-12-01T08:42:45;36.30;;;12.95;;
73382;SDS011;61600;48.126;11.542;2022-12-01T08:45:11;34.60;;;13.95;;
73382;SDS011;61600;48.126;11.542;2022-12-01T08:47:37;35.33;;;12.55;;
73382;SDS011;61600;48.126;11.542;2022-12-01T08:50:03;33.63;;;13.80;;
73382;SDS011;61600;48.126;11.542;2022-12-01T08:52:31;33.55;;;12.73;;
73382;SDS011;61600;48.126;11.542;2022-12-01T08:54:57;33.03;;;12.07;;
73382;SDS011;61600;48.126;11.542;2022-12-01T08:57:24;38.38;;;14.90;;
73382;SDS011;61600;48.126;11.542;2022-12-01T09:08:00;34.80;;;13.93;;
73382;SDS011;61600;48.126;11.542;2022-12-01T09:15:53;34.50;;;12.63;;
73382;SDS011;61600;48.126;11.542;2022-12-01T09:25:42;29.60;;;11.70;;
73382;SDS011;61600;48.126;11.542;2022-12-01T09:28:08;34.50;;;13.23;;
73382;SDS011;61600;48.126;11.542;2022-12-01T09:30:34;30.85;;;13.65;;
73382;SDS011;61600;48.126;11.542;2022-12-01T09:33:00;30.40;;;13.35;;
73382;SDS011;61600;48.126;11.542;2022-12-01T09:35:26;37.22;;;13.73;;
73382;SDS011;61600;48.126;11.542;2022-12-01T09:37:52;33.17;;;12.40;;
73382;SDS011;61600;48.126;11.542;2022-12-01T09:40:18;38.47;;;14.15;;
73382;SDS011;61600;48.126;11.542;2022-12-01T09:42:44;33.42;;;12.30;;
73382;SDS011;61600;48.126;11.542;2022-12-01T09:45:18;28.20;;;11.57;;
73382;SDS011;61600;48.126;11.542;2022-12-01T09:47:50;30.02;;;11.98;;
73382;SDS011;61600;48.126;11.542;2022-12-01T09:50:21;34.88;;;13.32;;
73382;SDS011;61600;48.126;11.542;2022-12-01T09:53:06;34.10;;;13.77;;
73382;SDS011;61600;48.126;11.542;2022-12-01T10:00:42;30.13;;;11.53;;
73382;SDS011;61600;48.126;11.542;2022-12-01T10:05:58;29.17;;;11.73;;
73382;SDS011;61600;48.126;11.542;2022-12-01T10:11:23;30.67;;;12.30;;
73382;SDS011;61600;48.126;11.542;2022-12-01T10:14:02;27.30;;;10.88;;
73382;SDS011;61600;48.126;11.542;2022-12-01T10:16:37;31.77;;;12.30;;
73382;SDS011;61600;48.126;11.542;2022-12-01T10:25:21;25.50;;;11.40;;
73382;SDS011;61600;48.126;11.542;2022-12-01T10:30:27;39.15;;;12.25;;
73382;SDS011;61600;48.126;11.542;2022-12-01T10:32:54;29.63;;;12.77;;
73382;SDS011;61600;48.126;11.542;2022-12-01T10:35:24;29.83;;;11.77;;
73382;SDS011;61600;48.126;11.542;2022-12-01T10:37:55;26.33;;;11.00;;
73382;SDS011;61600;48.126;11.542;2022-12-01T10:40:24;28.90;;;11.43;;
73382;SDS011;61600;48.126;11.542;2022-12-01T10:42:52;29.52;;;11.15;;
73382;SDS011;61600;48.126;11.542;2022-12-01T10:45:26;29.80;;;13.52;;
73382;SDS011;61600;48.126;11.542;2022-12-01T10:50:44;29.70;;;11.82;;
73382;SDS011;61600;48.126;11.542;2022-12-01T10:55:55;30.83;;;12.60;;
73382;SDS011;61600;48.126;11.542;2022-12-01T10:58:42;31.52;;;11.68;;
73382;SDS011;61600;48.126;11.542;2022-12-01T11:01:14;29.58;;;11.40;;
73382;SDS011;61600;48.126;11.542;2022-12-01T11:11:43;26.25;;;10.57;;
73382;SDS011;61600;48.126;11.542;2022-12-01T11:26:09;26.90;;;10.85;;
73382;SDS011;61600;48.126;11.542;2022-12-01T11:32:29;29.95;;;11.68;;
73382;SDS011;61600;48.126;11.542;2022-12-01T11:37:34;25.20;;;10.63;;
73382;SDS011;61600;48.126;11.542;2022-12-01T11:50:34;26.35;;;11.60;;
73382;SDS011;61600;48.126;11.542;2022-12-01T11:53:08;24.25;;;10.82;;
73382;SDS011;61600;48.126;11.542;2022-12-01T12:07:09;35.83;;;10.80;;
73382;SDS011;61600;48.126;11.542;2022-12-01T12:35:45;30.30;;;10.55;;
73382;SDS011;61600;48.126;11.542;2022-12-01T12:47:24;29.02;;;11.13;;
73382;SDS011;61600;48.126;11.542;2022-12-01T12:55:47;25.85;;;10.43;;
73382;SDS011;61600;48.126;11.542;2022-12-01T12:58:21;31.88;;;12.23;;
73382;SDS011;61600;48.126;11.542;2022-12-01T13:00:58;25.83;;;11.00;;
73382;SDS011;61600;48.126;11.542;2022-12-01T13:06:12;35.40;;;15.60;;
73382;SDS011;61600;48.126;11.542;2022-12-01T13:08:54;27.77;;;11.48;;
73382;SDS011;61600;48.126;11.542;2022-12-01T13:11:24;29.05;;;10.98;;
73382;SDS011;61600;48.126;11.542;2022-12-01T13:14:16;29.63;;;10.80;;
73382;SDS011;61600;48.126;11.542;2022-12-01T13:16:49;25.58;;;10.05;;
73382;SDS011;61600;48.126;11.542;2022-12-01T13:24:29;28.60;;;10.52;;
73382;SDS011;61600;48.126;11.542;2022-12-01T13:29:24;29.35;;;10.77;;
73382;SDS011;61600;48.126;11.542;2022-12-01T13:31:52;27.15;;;11.30;;
73382;SDS011;61600;48.126;11.542;2022-12-01T13:34:28;25.92;;;11.38;;
73382;SDS011;61600;48.126;11.542;2022-12-01T13:37:00;28.83;;;11.23;;
73382;SDS011;61600;48.126;11.542;2022-12-01T13:39:29;31.48;;;12.10;;
73382;SDS011;61600;48.126;11.542;2022-12-01T13:42:05;26.90;;;10.45;;
73382;SDS011;61600;48.126;11.542;2022-12-01T13:49:47;30.08;;;12.70;;
73382;SDS011;61600;48.126;11.542;2022-12-01T13:52:27;28.67;;;11.43;;
73382;SDS011;61600;48.126;11.542;2022-12-01T13:57:24;27.70;;;11.27;;
73382;SDS011;61600;48.126;11.542;2022-12-01T14:02:25;28.65;;;11.45;;
73382;SDS011;61600;48.126;11.542;2022-12-01T14:04:53;32.72;;;14.25;;
73382;SDS011;61600;48.126;11.542;2022-12-01T14:25:35;29.05;;;11.52;;
73382;SDS011;61600;48.126;11.542;2022-12-01T14:28:11;24.02;;;10.15;;
73382;SDS011;61600;48.126;11.542;2022-12-01T14:33:43;25.10;;;10.93;;
73382;SDS011;61600;48.126;11.542;2022-12-01T14:41:59;31.13;;;10.77;;
73382;SDS011;61600;48.126;11.542;2022-12-01T14:47:28;25.92;;;10.32;;
73382;SDS011;61600;48.126;11.542;2022-12-01T14:56:06;31.55;;;10.00;;
73382;SDS011;61600;48.126;11.542;2022-12-01T14:58:38;24.17;;;9.52;;
73382;SDS011;61600;48.126;11.542;2022-12-01T15:01:33;25.58;;;10.10;;
73382;SDS011;61600;48.126;11.542;2022-12-01T15:04:03;27.13;;;9.82;;
73382;SDS011;61600;48.126;11.542;2022-12-01T15:06:33;28.65;;;11.02;;
73382;SDS011;61600;48.126;11.542;2022-12-01T15:09:05;28.38;;;11.00;;
73382;SDS011;61600;48.126;11.542;2022-12-01T15:11:41;23.95;;;9.50;;
73382;SDS011;61600;48.126;11.542;2022-12-01T15:14:21;27.55;;;11.27;;
73382;SDS011;61600;48.126;11.542;2022-12-01T15:19:26;27.40;;;10.23;;
73382;SDS011;61600;48.126;11.542;2022-12-01T15:22:06;28.23;;;9.88;;
73382;SDS011;61600;48.126;11.542;2022-12-01T15:24:36;28.25;;;10.73;;
73382;SDS011;61600;48.126;11.542;2022-12-01T15:27:02;26.85;;;10.60;;
73382;SDS011;61600;48.126;11.542;2022-12-01T15:29:49;24.05;;;10.05;;
73382;SDS011;61600;48.126;11.542;2022-12-01T15:32:16;26.75;;;10.35;;
73382;SDS011;61600;48.126;11.542;2022-12-01T15:34:44;26.90;;;10.48;;
73382;SDS011;61600;48.126;11.542;2022-12-01T15:37:14;28.05;;;10.20;;
73382;SDS011;61600;48.126;11.542;2022-12-01T15:39:48;29.73;;;11.10;;
73382;SDS011;61600;48.126;11.542;2022-12-01T15:42:30;24.30;;;10.10;;
73382;SDS011;61600;48.126;11.542;2022-12-01T15:47:47;30.67;;;9.95;;
73382;SDS011;61600;48.126;11.542;2022-12-01T15:50:28;26.42;;;10.00;;
73382;SDS011;61600;48.126;11.542;2022-12-01T15:55:30;27.60;;;10.07;;
73382;SDS011;61600;48.126;11.542;2022-12-01T15:58:05;24.65;;;10.38;;
73382;SDS011;61600;48.126;11.542;2022-12-01T16:00:33;25.90;;;9.98;;
73382;SDS011;61600;48.126;11.542;2022-12-01T16:02:59;26.08;;;10.35;;
73382;SDS011;61600;48.126;11.542;2022-12-01T16:05:30;29.63;;;11.10;;
73382;SDS011;61600;48.126;11.542;2022-12-01T16:08:19;26.02;;;11.45;;
73382;SDS011;61600;48.126;11.542;2022-12-01T16:13:59;27.67;;;10.63;;
73382;SDS011;61600;48.126;11.542;2022-12-01T16:19:21;24.90;;;9.98;;
73382;SDS011;61600;48.126;11.542;2022-12-01T16:25:14;23.42;;;9.35;;
73382;SDS011;61600;48.126;11.542;2022-12-01T16:34:04;29.77;;;11.05;;
73382;SDS011;61600;48.126;11.542;2022-12-01T16:36:31;24.73;;;9.98;;
73382;SDS011;61600;48.126;11.542;2022-12-01T16:38:57;30.45;;;11.10;;
73382;SDS011;61600;48.126;11.542;2022-12-01T16:41:32;31.02;;;10.90;;
73382;SDS011;61600;48.126;11.542;2022-12-01T16:44:05;27.17;;;10.77;;
73382;SDS011;61600;48.126;11.542;2022-12-01T16:46:32;25.23;;;10.57;;
73382;SDS011;61600;48.126;11.542;2022-12-01T16:48:58;27.65;;;10.32;;
73382;SDS011;61600;48.126;11.542;2022-12-01T16:51:26;27.92;;;10.50;;
73382;SDS011;61600;48.126;11.542;2022-12-01T16:53:52;25.25;;;9.88;;
73382;SDS011;61600;48.126;11.542;2022-12-01T16:56:18;24.75;;;9.82;;
73382;SDS011;61600;48.126;11.542;2022-12-01T16:58:47;29.55;;;10.85;;
73382;SDS011;61600;48.126;11.542;2022-12-01T17:01:16;26.80;;;10.75;;
73382;SDS011;61600;48.126;11.542;2022-12-01T17:03:45;23.63;;;10.90;;
73382;SDS011;61600;48.126;11.542;2022-12-01T17:06:19;32.55;;;11.82;;
73382;SDS011;61600;48.126;11.542;2022-12-01T17:08:45;30.05;;;10.93;;
73382;SDS011;61600;48.126;11.542;2022-12-01T17:11:11;32.80;;;12.00;;
73382;SDS011;61600;48.126;11.542;2022-12-01T17:13:38;27.80;;;11.93;;
73382;SDS011;61600;48.126;11.542;2022-12-01T17:16:04;28.27;;;11.18;;
73382;SDS011;61600;48.126;11.542;2022-12-01T17:18:37;32.88;;;11.07;;
73382;SDS011;61600;48.126;11.542;2022-12-01T17:21:07;28.17;;;10.52;;
73382;SDS011;61600;48.126;11.542;2022-12-01T17:23:35;26.42;;;11.18;;
73382;SDS011;61600;48.126;11.542;2022-12-01T17:26:15;27.88;;;10.15;;
73382;SDS011;61600;48.126;11.542;2022-12-01T17:28:45;28.48;;;10.75;;
73382;SDS011;61600;48.126;11.542;2022-12-01T17:31:11;29.75;;;11.15;;
73382;SDS011;61600;48.126;11.542;2022-12-01T17:33:38;30.30;;;12.25;;
73382;SDS011;61600;48.126;11.542;2022-12-01T17:36:08;31.63;;;11.35;;
73382;SDS011;61600;48.126;11.542;2022-12-01T17:38:36;31.15;;;11.48;;
73382;SDS011;61600;48.126;11.542;2022-12-01T17:41:06;24.58;;;10.40;;
73382;SDS011;61600;48.126;11.542;2022-12-01T17:43:36;32.33;;;12.32;;
73382;SDS011;61600;48.126;11.542;2022-12-01T17:46:03;27.88;;;11.48;;
73382;SDS011;61600;48.126;11.542;2022-12-01T17:48:38;28.15;;;11.32;;
73382;SDS011;61600;48.126;11.542;2022-12-01T17:51:10;29.98;;;11.25;;
73382;SDS011;61600;48.126;11.542;2022-12-01T17:53:38;25.73;;;10.98;;
73382;SDS011;61600;48.126;11.542;2022-12-01T17:56:08;34.53;;;12.88;;
73382;SDS011;61600;48.126;11.542;2022-12-01T17:58:36;27.08;;;11.70;;
73382;SDS011;61600;48.126;11.542;2022-12-01T18:01:02;29.00;;;10.98;;
73382;SDS011;61600;48.126;11.542;2022-12-01T18:03:29;25.63;;;11.02;;
73382;SDS011;61600;48.126;11.542;2022-12-01T18:05:55;32.50;;;11.90;;
73382;SDS011;61600;48.126;11.542;2022-12-01T18:08:23;32.72;;;11.50;;
73382;SDS011;61600;48.126;11.542;2022-12-01T18:10:49;31.20;;;11.25;;
73382;SDS011;61600;48.126;11.542;2022-12-01T18:13:16;27.83;;;10.10;;
73382;SDS011;61600;48.126;11.542;2022-12-01T18:15:41;28.35;;;10.32;;
73382;SDS011;61600;48.126;11.542;2022-12-01T18:18:07;29.88;;;11.43;;
73382;SDS011;61600;48.126;11.542;2022-12-01T18:20:32;30.63;;;10.60;;
73382;SDS011;61600;48.126;11.542;2022-12-01T18:22:58;28.38;;;10.60;;
73382;SDS011;61600;48.126;11.542;2022-12-01T18:25:26;26.48;;;11.10;;
73382;SDS011;61600;48.126;11.542;2022-12-01T18:27:52;28.20;;;11.07;;
73382;SDS011;61600;48.126;11.542;2022-12-01T18:30:22;26.00;;;11.13;;
73382;SDS011;61600;48.126;11.542;2022-12-01T18:32:48;27.10;;;10.65;;
73382;SDS011;61600;48.126;11.542;2022-12-01T18:35:14;26.67;;;10.57;;
73382;SDS011;61600;48.126;11.542;2022-12-01T18:37:40;29.35;;;11.45;;
73382;SDS011;61600;48.126;11.542;2022-12-01T18:40:07;29.33;;;10.85;;
73382;SDS011;61600;48.126;11.542;2022-12-01T18:42:33;29.02;;;12.23;;
73382;SDS011;61600;48.126;11.542;2022-12-01T18:44:58;27.80;;;12.32;;
73382;SDS011;61600;48.126;11.542;2022-12-01T18:47:24;25.02;;;10.98;;
73382;SDS011;61600;48.126;11.542;2022-12-01T18:49:50;30.40;;;11.38;;
73382;SDS011;61600;48.126;11.542;2022-12-01T18:52:19;25.88;;;11.32;;
73382;SDS011;61600;48.126;11.542;2022-12-01T18:54:45;26.95;;;10.85;;
73382;SDS011;61600;48.126;11.542;2022-12-01T18:57:11;27.30;;;11.57;;